sensor_id;sensor_type;location;lat;lon;timestamp;pressure;altitude;pressure_sealevel;temperature;humidity
6218;BME280;3142;48.206;11.550;2023-04-06T00:00:01;95980.59;;;5.86;45.69
6218;BME280;3142;48.206;11.550;2023-04-06T00:02:29;95969.38;;;5.86;45.68
6218;BME280;3142;48.206;11.550;2023-04-06T00:04:56;95967.75;;;5.85;45.90
6218;BME280;3142;48.206;11.550;2023-04-06T00:07:22;95969.38;;;5.86;45.91
6218;BME280;3142;48.206;11.550;2023-04-06T00:09:49;95962.75;;;5.83;46.41
6218;BME280;3142;48.206;11.550;2023-04-06T00:12:15;95971.03;;;5.79;46.95
6218;BME280;3142;48.206;11.550;2023-04-06T00:14:42;95966.47;;;5.73;47.14
6218;BME280;3142;48.206;11.550;2023-04-06T00:17:10;95963.06;;;5.72;47.31
6218;BME280;3142;48.206;11.550;2023-04-06T00:19:37;95955.78;;;5.76;47.31
6218;BME280;3142;48.206;11.550;2023-04-06T00:22:03;95961.91;;;5.75;47.48
6218;BME280;3142;48.206;11.550;2023-04-06T00:24:30;95962.25;;;5.72;47.45
6218;BME280;3142;48.206;11.550;2023-04-06T00:26:56;95962.59;;;5.69;47.90
6218;BME280;3142;48.206;11.550;2023-04-06T00:29:23;95961.94;;;5.58;48.37
6218;BME280;3142;48.206;11.550;2023-04-06T00:31:49;95960.47;;;5.56;48.68
6218;BME280;3142;48.206;11.550;2023-04-06T00:34:17;95971.03;;;5.54;48.75
6218;BME280;3142;48.206;11.550;2023-04-06T00:36:43;95964.22;;;5.53;49.50
6218;BME280;3142;48.206;11.550;2023-04-06T00:39:10;95959.66;;;5.55;49.15
6218;BME280;3142;48.206;11.550;2023-04-06T00:41:36;95963.56;;;5.59;49.33
6218;BME280;3142;48.206;11.550;2023-04-06T00:44:03;95959.03;;;5.53;48.85
6218;BME280;3142;48.206;11.550;2023-04-06T00:46:29;95958.69;;;5.56;48.84
6218;BME280;3142;48.206;11.550;2023-04-06T00:48:56;95966.66;;;5.55;49.49
6218;BME280;3142;48.206;11.550;2023-04-06T00:51:24;95952.53;;;5.57;49.65
6218;BME280;3142;48.206;11.550;2023-04-06T00:53:50;95961.94;;;5.50;50.06
6218;BME280;3142;48.206;11.550;2023-04-06T00:56:17;95961.13;;;5.50;50.06
6218;BME280;3142;48.206;11.550;2023-04-06T00:58:43;95956.94;;;5.49;49.68
6218;BME280;3142;48.206;11.550;2023-04-06T01:01:10;95957.25;;;5.54;50.33
6218;BME280;3142;48.206;11.550;2023-04-06T01:03:36;95956.91;;;5.57;50.53
6218;BME280;3142;48.206;11.550;2023-04-06T01:06:03;95960.47;;;5.56;50.79
6218;BME280;3142;48.206;11.550;2023-04-06T01:08:31;95964.38;;;5.60;50.66
6218;BME280;3142;48.206;11.550;2023-04-06T01:10:59;95958.06;;;5.54;50.85
6218;BME280;3142;48.206;11.550;2023-04-06T01:13:26;95961.28;;;5.56;51.10
6218;BME280;3142;48.206;11.550;2023-04-06T01:15:52;95961.63;;;5.53;50.99
6218;BME280;3142;48.206;11.550;2023-04-06T01:18:25;95960.63;;;5.46;50.87
6218;BME280;3142;48.206;11.550;2023-04-06T01:20:52;95959.19;;;5.35;50.96
6218;BME280;3142;48.206;11.550;2023-04-06T01:23:19;95956.56;;;5.27;50.94
6218;BME280;3142;48.206;11.550;2023-04-06T01:25:46;95953.97;;;5.27;50.77
6218;BME280;3142;48.206;11.550;2023-04-06T01:28:12;95953.13;;;5.19;51.14
6218;BME280;3142;48.206;11.550;2023-04-06T01:30:39;95955.44;;;5.22;51.04
6218;BME280;3142;48.206;11.550;2023-04-06T01:33:05;95953.31;;;5.17;51.14
6218;BME280;3142;48.206;11.550;2023-04-06T01:35:32;95953.78;;;5.13;51.65
6218;BME280;3142;48.206;11.550;2023-04-06T01:37:58;95953.59;;;5.06;51.85
6218;BME280;3142;48.206;11.550;2023-04-06T01:40:26;95952.97;;;5.04;52.10
6218;BME280;3142;48.206;11.550;2023-04-06T01:42:52;95950.84;;;4.99;52.29
6218;BME280;3142;48.206;11.550;2023-04-06T01:45:19;95953.56;;;4.82;52.42
6218;BME280;3142;48.206;11.550;2023-04-06T01:47:46;95942.03;;;4.76;52.65
6218;BME280;3142;48.206;11.550;2023-04-06T01:50:12;95942.31;;;4.65;53.22
6218;BME280;3142;48.206;11.550;2023-04-06T01:52:39;95939.22;;;4.61;53.13
6218;BME280;3142;48.206;11.550;2023-04-06T01:55:06;95941.66;;;4.55;53.49
6218;BME280;3142;48.206;11.550;2023-04-06T01:57:34;95942.97;;;4.59;53.23
6218;BME280;3142;48.206;11.550;2023-04-06T02:00:00;95943.28;;;4.56;53.82
6218;BME280;3142;48.206;11.550;2023-04-06T02:02:27;95937.13;;;4.57;53.32
6218;BME280;3142;48.206;11.550;2023-04-06T02:04:53;95944.25;;;4.63;52.84
6218;BME280;3142;48.206;11.550;2023-04-06T02:07:20;95944.41;;;4.61;53.32
6218;BME280;3142;48.206;11.550;2023-04-06T02:09:46;95938.31;;;4.70;53.06
6218;BME280;3142;48.206;11.550;2023-04-06T02:12:12;95941.88;;;4.69;52.87
6218;BME280;3142;48.206;11.550;2023-04-06T02:14:40;95944.47;;;4.69;53.46
6218;BME280;3142;48.206;11.550;2023-04-06T02:17:07;95935.06;;;4.68;52.84
6218;BME280;3142;48.206;11.550;2023-04-06T02:19:33;95935.06;;;4.68;52.58
6218;BME280;3142;48.206;11.550;2023-04-06T02:21:59;95935.06;;;4.68;52.64
6218;BME280;3142;48.206;11.550;2023-04-06T02:24:26;95939.22;;;4.61;53.32
6218;BME280;3142;48.206;11.550;2023-04-06T02:26:52;95949.75;;;4.60;53.23
6218;BME280;3142;48.206;11.550;2023-04-06T02:29:19;95938.22;;;4.46;54.03
6218;BME280;3142;48.206;11.550;2023-04-06T02:31:47;95938.03;;;4.39;54.14
6218;BME280;3142;48.206;11.550;2023-04-06T02:34:14;95933.28;;;4.27;53.82
6218;BME280;3142;48.206;11.550;2023-04-06T02:36:42;95934.69;;;4.21;54.39
6218;BME280;3142;48.206;11.550;2023-04-06T02:39:09;95938.25;;;4.20;54.17
6218;BME280;3142;48.206;11.550;2023-04-06T02:41:35;95940.66;;;4.13;54.17
6218;BME280;3142;48.206;11.550;2023-04-06T02:44:02;95941.63;;;4.12;54.64
6218;BME280;3142;48.206;11.550;2023-04-06T02:46:29;95941.25;;;4.07;54.79
6218;BME280;3142;48.206;11.550;2023-04-06T02:48:57;95929.09;;;4.00;54.83
6218;BME280;3142;48.206;11.550;2023-04-06T02:51:25;95933.91;;;3.95;55.25
6218;BME280;3142;48.206;11.550;2023-04-06T02:53:52;95930.34;;;3.96;55.13
6218;BME280;3142;48.206;11.550;2023-04-06T02:56:19;95932.66;;;3.99;55.02
6218;BME280;3142;48.206;11.550;2023-04-06T02:58:46;95934.97;;;4.10;54.74
6218;BME280;3142;48.206;11.550;2023-04-06T03:01:13;95922.25;;;4.25;54.28
6218;BME280;3142;48.206;11.550;2023-04-06T03:03:40;95930.47;;;4.20;54.83
6218;BME280;3142;48.206;11.550;2023-04-06T03:06:07;95925.94;;;4.14;54.26
6218;BME280;3142;48.206;11.550;2023-04-06T03:08:34;95931.22;;;4.04;54.81
6218;BME280;3142;48.206;11.550;2023-04-06T03:11:00;95936.34;;;3.96;54.99
6218;BME280;3142;48.206;11.550;2023-04-06T03:13:27;95928.56;;;3.96;55.37
6218;BME280;3142;48.206;11.550;2023-04-06T03:15:53;95931.78;;;3.90;54.83
6218;BME280;3142;48.206;11.550;2023-04-06T03:18:21;95931.72;;;3.82;55.42
6218;BME280;3142;48.206;11.550;2023-04-06T03:20:48;95935.94;;;3.83;55.60
6218;BME280;3142;48.206;11.550;2023-04-06T03:23:16;95930.91;;;3.81;55.92
6218;BME280;3142;48.206;11.550;2023-04-06T03:25:42;95928.28;;;3.73;55.87
6218;BME280;3142;48.206;11.550;2023-04-06T03:28:09;95932.59;;;3.65;55.89
6218;BME280;3142;48.206;11.550;2023-04-06T03:30:35;95937.28;;;3.69;55.53
6218;BME280;3142;48.206;11.550;2023-04-06T03:33:01;95930.41;;;3.78;55.22
6218;BME280;3142;48.206;11.550;2023-04-06T03:35:28;95934.59;;;3.71;55.48
6218;BME280;3142;48.206;11.550;2023-04-06T03:37:54;95929.41;;;3.71;55.56
6218;BME280;3142;48.206;11.550;2023-04-06T03:40:22;95937.00;;;3.72;55.53
6218;BME280;3142;48.206;11.550;2023-04-06T03:42:49;95934.19;;;3.66;56.23
6218;BME280;3142;48.206;11.550;2023-04-06T03:45:15;95940.84;;;3.68;55.94
6218;BME280;3142;48.206;11.550;2023-04-06T03:47:42;95939.69;;;3.63;56.17
6218;BME280;3142;48.206;11.550;2023-04-06T03:50:09;95937.72;;;3.56;55.82
6218;BME280;3142;48.206;11.550;2023-04-06T03:52:35;95942.03;;;3.56;55.73
6218;BME280;3142;48.206;11.550;2023-04-06T03:55:02;95945.00;;;3.61;56.32
6218;BME280;3142;48.206;11.550;2023-04-06T03:57:30;95945.75;;;3.71;56.01
6218;BME280;3142;48.206;11.550;2023-04-06T03:59:56;95944.16;;;3.78;55.96
6218;BME280;3142;48.206;11.550;2023-04-06T04:02:23;95948.88;;;3.83;55.62
6218;BME280;3142;48.206;11.550;2023-04-06T04:04:49;95954.72;;;3.85;55.09
6218;BME280;3142;48.206;11.550;2023-04-06T04:07:16;95948.38;;;3.79;55.34
6218;BME280;3142;48.206;11.550;2023-04-06T04:09:42;95958.97;;;3.94;55.18
6218;BME280;3142;48.206;11.550;2023-04-06T04:12:09;95964.00;;;3.96;55.50
6218;BME280;3142;48.206;11.550;2023-04-06T04:14:37;95965.84;;;4.03;55.03
6218;BME280;3142;48.206;11.550;2023-04-06T04:17:03;95958.66;;;3.97;54.74
6218;BME280;3142;48.206;11.550;2023-04-06T04:19:30;95964.16;;;3.94;55.18
6218;BME280;3142;48.206;11.550;2023-04-06T04:21:56;95957.50;;;3.92;55.18
6218;BME280;3142;48.206;11.550;2023-04-06T04:24:23;95960.13;;;3.74;55.37
6218;BME280;3142;48.206;11.550;2023-04-06T04:26:49;95961.34;;;3.62;55.64
6218;BME280;3142;48.206;11.550;2023-04-06T04:29:15;95964.50;;;3.55;55.48
6218;BME280;3142;48.206;11.550;2023-04-06T04:31:46;95959.09;;;3.67;56.61
6218;BME280;3142;48.206;11.550;2023-04-06T04:34:12;95967.91;;;3.74;57.22
6218;BME280;3142;48.206;11.550;2023-04-06T04:36:39;95966.97;;;3.83;57.93
6218;BME280;3142;48.206;11.550;2023-04-06T04:39:07;95962.78;;;3.82;57.50
6218;BME280;3142;48.206;11.550;2023-04-06T04:41:33;95963.59;;;3.82;57.33
6218;BME280;3142;48.206;11.550;2023-04-06T04:44:00;95967.03;;;3.91;57.87
6218;BME280;3142;48.206;11.550;2023-04-06T04:46:27;95963.31;;;3.85;57.14
6218;BME280;3142;48.206;11.550;2023-04-06T04:48:54;95973.59;;;3.77;57.33
6218;BME280;3142;48.206;11.550;2023-04-06T04:51:21;95966.13;;;3.74;57.69
6218;BME280;3142;48.206;11.550;2023-04-06T04:53:47;95967.97;;;3.64;57.71
6218;BME280;3142;48.206;11.550;2023-04-06T04:56:14;95966.81;;;3.59;57.40
6218;BME280;3142;48.206;11.550;2023-04-06T04:58:40;95969.03;;;3.53;57.84
6218;BME280;3142;48.206;11.550;2023-04-06T05:01:07;95964.81;;;3.52;57.94
6218;BME280;3142;48.206;11.550;2023-04-06T05:03:34;95963.84;;;3.53;56.86
6218;BME280;3142;48.206;11.550;2023-04-06T05:06:02;95963.19;;;3.51;57.52
6218;BME280;3142;48.206;11.550;2023-04-06T05:08:28;95973.91;;;3.56;56.66
6218;BME280;3142;48.206;11.550;2023-04-06T05:10:55;95965.47;;;3.54;56.99
6218;BME280;3142;48.206;11.550;2023-04-06T05:13:21;95966.28;;;3.55;57.49
6218;BME280;3142;48.206;11.550;2023-04-06T05:15:48;95967.78;;;3.58;56.71
6218;BME280;3142;48.206;11.550;2023-04-06T05:18:15;95971.06;;;3.68;57.19
6218;BME280;3142;48.206;11.550;2023-04-06T05:20:42;95970.88;;;3.61;57.52
6218;BME280;3142;48.206;11.550;2023-04-06T05:23:10;95963.41;;;3.58;57.53
6218;BME280;3142;48.206;11.550;2023-04-06T05:25:36;95966.22;;;3.65;57.05
6218;BME280;3142;48.206;11.550;2023-04-06T05:28:03;95975.16;;;3.70;57.12
6218;BME280;3142;48.206;11.550;2023-04-06T05:30:29;95971.31;;;3.74;56.91
6218;BME280;3142;48.206;11.550;2023-04-06T05:32:56;95967.13;;;3.81;56.36
6218;BME280;3142;48.206;11.550;2023-04-06T05:35:22;95968.63;;;3.84;56.54
6218;BME280;3142;48.206;11.550;2023-04-06T05:37:49;95974.81;;;3.91;57.18
6218;BME280;3142;48.206;11.550;2023-04-06T05:40:17;95970.44;;;3.92;56.64
6218;BME280;3142;48.206;11.550;2023-04-06T05:42:43;95972.28;;;3.99;56.46
6218;BME280;3142;48.206;11.550;2023-04-06T05:45:10;95973.44;;;4.05;56.20
6218;BME280;3142;48.206;11.550;2023-04-06T05:47:42;95976.53;;;4.08;56.06
6218;BME280;3142;48.206;11.550;2023-04-06T05:50:09;95969.47;;;4.19;56.62
6218;BME280;3142;48.206;11.550;2023-04-06T05:52:35;95969.00;;;4.23;56.53
6218;BME280;3142;48.206;11.550;2023-04-06T05:55:02;95973.75;;;4.28;56.64
6218;BME280;3142;48.206;11.550;2023-04-06T05:57:30;95979.47;;;4.39;56.06
6218;BME280;3142;48.206;11.550;2023-04-06T05:59:56;95972.03;;;4.44;56.70
6218;BME280;3142;48.206;11.550;2023-04-06T06:02:22;95973.19;;;4.50;56.27
6218;BME280;3142;48.206;11.550;2023-04-06T06:04:49;95972.09;;;4.53;56.11
6218;BME280;3142;48.206;11.550;2023-04-06T06:07:16;95979.69;;;4.54;56.21
6218;BME280;3142;48.206;11.550;2023-04-06T06:09:43;95982.16;;;4.64;56.44
6218;BME280;3142;48.206;11.550;2023-04-06T06:12:09;95974.41;;;4.72;55.98
6218;BME280;3142;48.206;11.550;2023-04-06T06:14:37;95977.19;;;4.79;55.90
6218;BME280;3142;48.206;11.550;2023-04-06T06:17:03;95977.69;;;4.82;55.61
6218;BME280;3142;48.206;11.550;2023-04-06T06:19:30;95979.34;;;4.91;55.07
6218;BME280;3142;48.206;11.550;2023-04-06T06:21:56;95973.84;;;4.94;55.36
6218;BME280;3142;48.206;11.550;2023-04-06T06:24:23;95974.66;;;5.03;55.06
6218;BME280;3142;48.206;11.550;2023-04-06T06:26:50;95975.03;;;5.08;54.38
6218;BME280;3142;48.206;11.550;2023-04-06T06:29:17;95971.94;;;5.13;54.31
6218;BME280;3142;48.206;11.550;2023-04-06T06:31:44;95974.56;;;5.29;54.33
6218;BME280;3142;48.206;11.550;2023-04-06T06:34:11;95974.75;;;5.44;53.92
6218;BME280;3142;48.206;11.550;2023-04-06T06:36:38;95974.56;;;5.61;53.59
6218;BME280;3142;48.206;11.550;2023-04-06T06:39:04;95976.22;;;5.79;53.42
6218;BME280;3142;48.206;11.550;2023-04-06T06:41:31;95974.75;;;6.01;52.95
6218;BME280;3142;48.206;11.550;2023-04-06T06:43:57;95977.47;;;6.23;52.42
6218;BME280;3142;48.206;11.550;2023-04-06T06:46:23;95970.25;;;6.58;51.77
6218;BME280;3142;48.206;11.550;2023-04-06T06:48:51;95974.66;;;6.89;51.14
6218;BME280;3142;48.206;11.550;2023-04-06T06:51:18;95984.56;;;6.93;50.58
6218;BME280;3142;48.206;11.550;2023-04-06T06:53:44;95977.53;;;7.25;49.08
6218;BME280;3142;48.206;11.550;2023-04-06T06:56:11;95983.09;;;7.67;48.28
6218;BME280;3142;48.206;11.550;2023-04-06T06:58:37;95982.44;;;7.73;47.46
6218;BME280;3142;48.206;11.550;2023-04-06T07:01:04;95983.25;;;8.26;47.61
6218;BME280;3142;48.206;11.550;2023-04-06T07:03:31;95974.84;;;8.69;46.47
6218;BME280;3142;48.206;11.550;2023-04-06T07:05:59;95974.78;;;9.13;45.89
6218;BME280;3142;48.206;11.550;2023-04-06T07:08:25;95973.72;;;9.65;45.88
6218;BME280;3142;48.206;11.550;2023-04-06T07:10:52;95966.44;;;9.82;44.83
6218;BME280;3142;48.206;11.550;2023-04-06T07:13:21;95980.72;;;10.28;44.37
6218;BME280;3142;48.206;11.550;2023-04-06T07:15:48;95972.06;;;10.62;44.07
6218;BME280;3142;48.206;11.550;2023-04-06T07:18:15;95975.88;;;11.01;43.11
6218;BME280;3142;48.206;11.550;2023-04-06T07:20:41;95967.19;;;11.68;42.02
6218;BME280;3142;48.206;11.550;2023-04-06T07:23:09;95962.97;;;11.67;42.49
6218;BME280;3142;48.206;11.550;2023-04-06T07:25:36;95970.44;;;11.90;42.23
6218;BME280;3142;48.206;11.550;2023-04-06T07:28:02;95969.56;;;11.43;42.84
6218;BME280;3142;48.206;11.550;2023-04-06T07:30:29;95974.56;;;10.77;42.77
6218;BME280;3142;48.206;11.550;2023-04-06T07:32:56;95973.16;;;9.91;40.10
6218;BME280;3142;48.206;11.550;2023-04-06T07:35:22;95978.59;;;9.96;37.65
6218;BME280;3142;48.206;11.550;2023-04-06T07:37:49;95980.44;;;9.74;36.92
6218;BME280;3142;48.206;11.550;2023-04-06T07:40:17;95981.19;;;9.68;37.82
6218;BME280;3142;48.206;11.550;2023-04-06T07:42:44;95980.16;;;10.39;35.68
6218;BME280;3142;48.206;11.550;2023-04-06T07:45:11;95981.31;;;10.09;36.74
6218;BME280;3142;48.206;11.550;2023-04-06T07:47:38;95971.78;;;11.46;35.54
6218;BME280;3142;48.206;11.550;2023-04-06T07:50:05;95972.66;;;12.53;33.50
6218;BME280;3142;48.206;11.550;2023-04-06T07:52:31;95974.16;;;12.93;33.74
6218;BME280;3142;48.206;11.550;2023-04-06T07:54:58;95966.28;;;13.76;31.75
6218;BME280;3142;48.206;11.550;2023-04-06T07:57:26;95964.53;;;13.95;30.75
6218;BME280;3142;48.206;11.550;2023-04-06T07:59:52;95961.63;;;13.47;31.58
6218;BME280;3142;48.206;11.550;2023-04-06T08:02:19;95969.94;;;13.44;30.41
6218;BME280;3142;48.206;11.550;2023-04-06T08:04:45;95962.38;;;13.09;30.81
6218;BME280;3142;48.206;11.550;2023-04-06T08:07:11;95955.19;;;14.24;30.08
6218;BME280;3142;48.206;11.550;2023-04-06T08:09:38;95954.84;;;14.82;29.91
6218;BME280;3142;48.206;11.550;2023-04-06T08:12:05;95953.22;;;14.44;29.64
6218;BME280;3142;48.206;11.550;2023-04-06T08:14:33;95959.72;;;14.60;29.47
6218;BME280;3142;48.206;11.550;2023-04-06T08:17:00;95951.56;;;14.87;29.01
6218;BME280;3142;48.206;11.550;2023-04-06T08:19:26;95955.41;;;15.51;28.48
6218;BME280;3142;48.206;11.550;2023-04-06T08:21:52;95959.97;;;14.95;28.12
6218;BME280;3142;48.206;11.550;2023-04-06T08:24:19;95964.78;;;13.55;29.18
6218;BME280;3142;48.206;11.550;2023-04-06T08:26:46;95976.22;;;12.71;30.41
6218;BME280;3142;48.206;11.550;2023-04-06T08:29:12;95965.00;;;13.54;30.31
6218;BME280;3142;48.206;11.550;2023-04-06T08:31:40;95969.63;;;13.20;30.50
6218;BME280;3142;48.206;11.550;2023-04-06T08:34:06;95965.13;;;12.76;30.75
6218;BME280;3142;48.206;11.550;2023-04-06T08:36:33;95964.84;;;13.04;30.41
6218;BME280;3142;48.206;11.550;2023-04-06T08:39:00;95971.41;;;13.96;29.16
6218;BME280;3142;48.206;11.550;2023-04-06T08:41:27;95959.50;;;15.17;28.18
6218;BME280;3142;48.206;11.550;2023-04-06T08:43:56;95969.78;;;14.70;28.91
6218;BME280;3142;48.206;11.550;2023-04-06T08:46:23;95963.84;;;15.59;27.73
6218;BME280;3142;48.206;11.550;2023-04-06T08:48:57;95962.28;;;16.47;27.02
6218;BME280;3142;48.206;11.550;2023-04-06T08:51:24;95962.03;;;16.48;27.16
6218;BME280;3142;48.206;11.550;2023-04-06T08:53:52;95958.22;;;16.44;25.24
6218;BME280;3142;48.206;11.550;2023-04-06T08:56:20;95958.00;;;16.22;25.97
6218;BME280;3142;48.206;11.550;2023-04-06T08:58:47;95958.72;;;16.88;25.82
6218;BME280;3142;48.206;11.550;2023-04-06T09:01:17;95944.41;;;17.41;26.02
6218;BME280;3142;48.206;11.550;2023-04-06T09:03:44;95947.78;;;17.82;24.85
6218;BME280;3142;48.206;11.550;2023-04-06T09:06:13;95947.34;;;18.01;24.30
6218;BME280;3142;48.206;11.550;2023-04-06T09:08:40;95948.94;;;17.86;24.29
6218;BME280;3142;48.206;11.550;2023-04-06T09:11:08;95943.50;;;18.26;24.54
6218;BME280;3142;48.206;11.550;2023-04-06T09:13:44;95944.69;;;18.52;23.75
6218;BME280;3142;48.206;11.550;2023-04-06T09:16:11;95941.72;;;18.65;24.31
6218;BME280;3142;48.206;11.550;2023-04-06T09:18:37;95940.13;;;18.86;23.67
6218;BME280;3142;48.206;11.550;2023-04-06T09:21:06;95944.88;;;18.84;23.80
6218;BME280;3142;48.206;11.550;2023-04-06T09:23:34;95946.16;;;19.03;24.28
6218;BME280;3142;48.206;11.550;2023-04-06T09:26:08;95939.84;;;19.53;24.40
6218;BME280;3142;48.206;11.550;2023-04-06T09:28:45;95947.59;;;19.55;23.10
6218;BME280;3142;48.206;11.550;2023-04-06T09:31:13;95947.16;;;19.41;22.80
6218;BME280;3142;48.206;11.550;2023-04-06T09:33:41;95948.03;;;19.24;22.42
6218;BME280;3142;48.206;11.550;2023-04-06T09:36:08;95944.13;;;19.32;23.12
6218;BME280;3142;48.206;11.550;2023-04-06T09:38:37;95945.88;;;18.78;22.54
6218;BME280;3142;48.206;11.550;2023-04-06T09:41:04;95942.06;;;19.12;23.81
6218;BME280;3142;48.206;11.550;2023-04-06T09:43:31;95940.56;;;19.21;22.55
6218;BME280;3142;48.206;11.550;2023-04-06T09:45:59;95944.03;;;19.00;22.78
6218;BME280;3142;48.206;11.550;2023-04-06T09:48:30;95935.41;;;19.10;23.24
6218;BME280;3142;48.206;11.550;2023-04-06T09:51:00;95939.13;;;19.36;23.10
6218;BME280;3142;48.206;11.550;2023-04-06T09:53:30;95931.88;;;18.82;23.67
6218;BME280;3142;48.206;11.550;2023-04-06T09:56:02;95939.78;;;17.93;24.02
6218;BME280;3142;48.206;11.550;2023-04-06T09:58:33;95939.47;;;18.06;23.95
6218;BME280;3142;48.206;11.550;2023-04-06T10:01:03;95929.94;;;17.89;24.29
6218;BME280;3142;48.206;11.550;2023-04-06T10:03:35;95927.31;;;18.78;23.05
6218;BME280;3142;48.206;11.550;2023-04-06T10:09:17;95927.94;;;19.56;22.52
6218;BME280;3142;48.206;11.550;2023-04-06T10:11:47;95918.63;;;19.53;22.56
6218;BME280;3142;48.206;11.550;2023-04-06T10:14:14;95916.78;;;19.80;22.79
6218;BME280;3142;48.206;11.550;2023-04-06T10:16:42;95913.66;;;20.26;21.97
6218;BME280;3142;48.206;11.550;2023-04-06T10:19:13;95910.00;;;20.32;21.95
6218;BME280;3142;48.206;11.550;2023-04-06T10:21:45;95912.78;;;18.63;23.28
6218;BME280;3142;48.206;11.550;2023-04-06T10:24:14;95925.31;;;17.39;24.48
6218;BME280;3142;48.206;11.550;2023-04-06T10:26:42;95914.28;;;16.73;24.90
6218;BME280;3142;48.206;11.550;2023-04-06T10:29:10;95920.44;;;16.55;24.96
6218;BME280;3142;48.206;11.550;2023-04-06T10:31:40;95912.50;;;17.76;24.70
6218;BME280;3142;48.206;11.550;2023-04-06T10:34:08;95922.94;;;19.10;24.45
6218;BME280;3142;48.206;11.550;2023-04-06T10:36:35;95906.66;;;19.77;22.55
6218;BME280;3142;48.206;11.550;2023-04-06T10:39:03;95910.22;;;20.25;21.98
6218;BME280;3142;48.206;11.550;2023-04-06T10:41:33;95904.88;;;20.57;21.47
6218;BME280;3142;48.206;11.550;2023-04-06T10:44:00;95897.66;;;20.53;21.24
6218;BME280;3142;48.206;11.550;2023-04-06T10:46:30;95904.13;;;20.67;21.30
6218;BME280;3142;48.206;11.550;2023-04-06T10:48:56;95895.41;;;20.77;20.82
6218;BME280;3142;48.206;11.550;2023-04-06T10:51:26;95887.44;;;20.34;21.80
6218;BME280;3142;48.206;11.550;2023-04-06T10:53:54;95898.28;;;19.37;22.42
6218;BME280;3142;48.206;11.550;2023-04-06T10:56:22;95895.03;;;18.47;23.71
6218;BME280;3142;48.206;11.550;2023-04-06T10:58:52;95891.94;;;19.65;22.14
6218;BME280;3142;48.206;11.550;2023-04-06T11:01:21;95897.25;;;19.97;22.81
6218;BME280;3142;48.206;11.550;2023-04-06T11:03:51;95885.53;;;20.72;21.78
6218;BME280;3142;48.206;11.550;2023-04-06T11:06:19;95879.03;;;20.48;22.43
6218;BME280;3142;48.206;11.550;2023-04-06T11:08:45;95876.78;;;20.77;22.70
6218;BME280;3142;48.206;11.550;2023-04-06T11:11:13;95877.56;;;20.72;22.36
6218;BME280;3142;48.206;11.550;2023-04-06T11:13:42;95879.09;;;20.58;22.90
6218;BME280;3142;48.206;11.550;2023-04-06T11:16:13;95878.28;;;20.57;22.97
6218;BME280;3142;48.206;11.550;2023-04-06T11:18:53;95873.00;;;20.25;22.12
6218;BME280;3142;48.206;11.550;2023-04-06T11:21:32;95874.97;;;19.44;23.70
6218;BME280;3142;48.206;11.550;2023-04-06T11:24:09;95876.88;;;18.17;24.78
6218;BME280;3142;48.206;11.550;2023-04-06T11:26:40;95875.56;;;17.53;25.02
6218;BME280;3142;48.206;11.550;2023-04-06T11:29:07;95868.69;;;18.19;25.29
6218;BME280;3142;48.206;11.550;2023-04-06T11:31:38;95863.81;;;18.66;25.25
6218;BME280;3142;48.206;11.550;2023-04-06T11:34:10;95864.88;;;19.68;23.79
6218;BME280;3142;48.206;11.550;2023-04-06T11:36:40;95869.38;;;19.40;22.64
6218;BME280;3142;48.206;11.550;2023-04-06T11:39:06;95855.88;;;19.15;23.27
6218;BME280;3142;48.206;11.550;2023-04-06T11:41:33;95856.66;;;19.15;22.99
6218;BME280;3142;48.206;11.550;2023-04-06T11:44:00;95850.63;;;19.74;23.00
6218;BME280;3142;48.206;11.550;2023-04-06T11:46:27;95861.78;;;20.13;22.01
6218;BME280;3142;48.206;11.550;2023-04-06T11:48:57;95850.59;;;20.53;21.76
6218;BME280;3142;48.206;11.550;2023-04-06T11:51:26;95843.06;;;20.92;22.60
6218;BME280;3142;48.206;11.550;2023-04-06T11:53:52;95842.34;;;21.17;21.44
6218;BME280;3142;48.206;11.550;2023-04-06T11:56:23;95835.91;;;21.08;21.13
6218;BME280;3142;48.206;11.550;2023-04-06T11:58:50;95837.03;;;20.50;21.22
6218;BME280;3142;48.206;11.550;2023-04-06T12:01:16;95837.38;;;20.21;22.05
6218;BME280;3142;48.206;11.550;2023-04-06T12:03:43;95847.38;;;19.45;22.88
6218;BME280;3142;48.206;11.550;2023-04-06T12:06:09;95842.66;;;19.20;22.97
6218;BME280;3142;48.206;11.550;2023-04-06T12:08:37;95843.69;;;18.92;23.92
6218;BME280;3142;48.206;11.550;2023-04-06T12:11:04;95839.66;;;18.07;24.99
6218;BME280;3142;48.206;11.550;2023-04-06T12:13:30;95841.22;;;17.86;25.30
6218;BME280;3142;48.206;11.550;2023-04-06T12:15:56;95837.88;;;17.29;26.32
6218;BME280;3142;48.206;11.550;2023-04-06T12:18:23;95836.66;;;16.91;25.20
6218;BME280;3142;48.206;11.550;2023-04-06T12:20:51;95835.00;;;16.62;25.36
6218;BME280;3142;48.206;11.550;2023-04-06T12:23:18;95835.53;;;16.23;26.04
6218;BME280;3142;48.206;11.550;2023-04-06T12:25:46;95828.56;;;16.69;25.71
6218;BME280;3142;48.206;11.550;2023-04-06T12:28:12;95826.72;;;16.98;26.17
6218;BME280;3142;48.206;11.550;2023-04-06T12:30:39;95830.56;;;16.91;26.85
6218;BME280;3142;48.206;11.550;2023-04-06T12:33:06;95823.84;;;16.71;27.02
6218;BME280;3142;48.206;11.550;2023-04-06T12:35:33;95823.50;;;16.68;27.66
6218;BME280;3142;48.206;11.550;2023-04-06T12:38:00;95814.91;;;17.01;26.69
6218;BME280;3142;48.206;11.550;2023-04-06T12:40:26;95817.41;;;17.24;25.42
6218;BME280;3142;48.206;11.550;2023-04-06T12:42:54;95812.63;;;17.38;25.89
6218;BME280;3142;48.206;11.550;2023-04-06T12:45:21;95809.03;;;17.27;25.60
6218;BME280;3142;48.206;11.550;2023-04-06T12:47:47;95809.81;;;17.44;24.89
6218;BME280;3142;48.206;11.550;2023-04-06T12:50:13;95806.03;;;17.40;24.91
6218;BME280;3142;48.206;11.550;2023-04-06T12:52:40;95811.53;;;16.77;26.42
6218;BME280;3142;48.206;11.550;2023-04-06T12:55:07;95811.16;;;16.45;26.23
6218;BME280;3142;48.206;11.550;2023-04-06T12:57:34;95812.44;;;16.30;26.62
6218;BME280;3142;48.206;11.550;2023-04-06T13:00:02;95813.25;;;16.31;26.06
6218;BME280;3142;48.206;11.550;2023-04-06T13:02:29;95810.06;;;16.17;25.92
6218;BME280;3142;48.206;11.550;2023-04-06T13:04:56;95810.41;;;15.97;25.79
6218;BME280;3142;48.206;11.550;2023-04-06T13:07:22;95815.13;;;15.84;26.26
6218;BME280;3142;48.206;11.550;2023-04-06T13:09:49;95816.72;;;15.85;26.22
6218;BME280;3142;48.206;11.550;2023-04-06T13:12:15;95807.44;;;15.70;26.66
6218;BME280;3142;48.206;11.550;2023-04-06T13:14:42;95801.91;;;15.60;26.40
6218;BME280;3142;48.206;11.550;2023-04-06T13:17:09;95809.97;;;15.77;26.43
6218;BME280;3142;48.206;11.550;2023-04-06T13:19:36;95801.94;;;15.95;26.19